Fontana, California
Current Conditions -  °F | °C
As of 2:53 PM on Thursday 23 Oct 2014 (Local Time) from KONT Reporting Station
Scattered Clouds Scattered Clouds  
Wind Chill: 90°   Ceiling: Unl
Heat Index: 90°   Visibility: 10mi
Dew Point: 42°   Wind: 9mph
Humidity: 19%   Direction: 270°W
Pressure: 29.93"   Gusts: NA
Location:  34.1°N, 117.43°W
Report Text: KONT 232153Z 27008KT 10SM SCT250 32/06 A2993 RMK AO2 SLP118 T03220056
Loading
Personal Weather Stations






























Interactive Weather Map
Tropical Storm Tracking
New forecast layout! Learn more

10-Day Weather Forecast

Advertisements
Track Severe Weather on mobile